Time;durP1;ratioP1;P1;durP2;ratioP2;P2;SDS_P1;SDS_P2;PMS_P1;PMS_P2;Temp;Humidity;BMP_temperature;BMP_pressure;BME280_temperature;BME280_humidity;BME280_pressure;Samples;Min_cycle;Max_cycle;Signal;HPM_P1;HPM_P2
2023/09/18 00:01:08;;;;;;;33.45;27.38;;;18.00;99.90;;;;;;5013654;28;20068;-67
2023/09/18 00:03:33;;;;;;;30.73;27.17;;;18.00;99.90;;;;;;5012154;28;20046;-68
2023/09/18 00:06:00;;;;;;;31.15;27.77;;;18.00;99.90;;;;;;5013074;28;20112;-66
2023/09/18 00:08:25;;;;;;;29.90;26.50;;;18.00;99.90;;;;;;5011799;28;20053;-67
2023/09/18 00:10:53;;;;;;;28.15;25.05;;;18.00;99.90;;;;;;5012190;28;20042;-67
2023/09/18 00:13:20;;;;;;;31.67;27.60;;;18.00;99.90;;;;;;5011816;28;20053;-66
2023/09/18 00:15:46;;;;;;;30.67;27.35;;;17.90;99.90;;;;;;5013140;28;20049;-66
2023/09/18 00:18:16;;;;;;;32.50;28.58;;;17.90;99.90;;;;;;5013215;28;20104;-66
2023/09/18 00:20:42;;;;;;;34.35;28.30;;;17.90;99.90;;;;;;5011908;28;20085;-67
2023/09/18 00:23:09;;;;;;;33.78;28.90;;;17.90;99.90;;;;;;5011973;28;20046;-70
2023/09/18 00:25:34;;;;;;;33.15;29.08;;;17.90;99.90;;;;;;5011668;28;20050;-68
2023/09/18 00:28:00;;;;;;;31.52;28.10;;;17.80;99.90;;;;;;5011746;28;20045;-68
2023/09/18 00:30:26;;;;;;;34.63;29.45;;;17.80;99.90;;;;;;5012531;28;20069;-67
2023/09/18 00:32:51;;;;;;;31.83;28.42;;;17.80;99.90;;;;;;5011981;28;20054;-67
2023/09/18 00:35:17;;;;;;;36.55;30.55;;;17.80;99.90;;;;;;5013001;28;20048;-66
2023/09/18 00:37:43;;;;;;;36.95;28.85;;;17.80;99.90;;;;;;4995243;28;20080;-67
2023/09/18 00:40:10;;;;;;;32.30;28.75;;;17.70;99.90;;;;;;5012843;28;20468;-66
2023/09/18 00:42:36;;;;;;;34.78;29.55;;;17.70;99.90;;;;;;5012518;28;20128;-67
2023/09/18 00:45:02;;;;;;;33.05;28.90;;;17.70;99.90;;;;;;5011484;28;20081;-67
2023/09/18 00:47:28;;;;;;;35.08;29.55;;;17.70;99.90;;;;;;5012342;28;20111;-68
2023/09/18 00:49:55;;;;;;;36.45;29.65;;;17.70;99.90;;;;;;4995246;28;20038;-66
2023/09/18 00:52:22;;;;;;;30.02;26.55;;;17.70;99.90;;;;;;5011503;28;20053;-71
2023/09/18 00:54:48;;;;;;;36.30;28.52;;;17.70;99.90;;;;;;4995653;28;20396;-66
2023/09/18 00:57:14;;;;;;;33.60;27.90;;;17.70;99.90;;;;;;5012665;28;20042;-67
2023/09/18 00:59:40;;;;;;;30.77;26.92;;;17.70;99.90;;;;;;5012054;28;20041;-66
2023/09/18 01:02:07;;;;;;;32.05;27.15;;;17.70;99.90;;;;;;5011587;28;20468;-66
2023/09/18 01:04:33;;;;;;;29.27;26.13;;;17.60;99.90;;;;;;5012144;28;20052;-66
2023/09/18 01:07:03;;;;;;;30.33;27.05;;;17.60;99.90;;;;;;4994838;28;20057;-67
2023/09/18 01:09:32;;;;;;;32.55;27.63;;;17.60;99.90;;;;;;5010768;28;20045;-66
2023/09/18 01:12:24;;;;;;;36.70;28.25;;;17.60;99.90;;;;;;5012578;28;20144;-67
2023/09/18 01:15:13;;;;;;;32.70;26.98;;;17.50;99.90;;;;;;5009047;28;20056;-67
2023/09/18 01:17:40;;;;;;;30.98;26.23;;;17.50;99.90;;;;;;5010833;28;20484;-67
2023/09/18 01:20:08;;;;;;;30.92;27.33;;;17.50;99.90;;;;;;5011184;28;20104;-67
2023/09/18 01:22:34;;;;;;;33.85;29.17;;;17.50;99.90;;;;;;5010672;28;20057;-66
2023/09/18 01:25:00;;;;;;;34.03;29.48;;;17.50;99.90;;;;;;5012261;28;20045;-69
2023/09/18 01:27:26;;;;;;;33.88;29.00;;;17.50;99.90;;;;;;5012358;28;20042;-71
2023/09/18 01:29:53;;;;;;;32.65;28.38;;;17.50;99.90;;;;;;5010881;28;20464;-67
2023/09/18 01:32:19;;;;;;;32.70;29.27;;;17.50;99.90;;;;;;5011961;28;20526;-67
2023/09/18 01:34:48;;;;;;;34.58;30.58;;;17.50;99.90;;;;;;5010687;28;20046;-67
2023/09/18 01:37:17;;;;;;;34.65;29.98;;;17.50;99.90;;;;;;5012257;28;20399;-67
2023/09/18 01:39:44;;;;;;;34.33;30.17;;;17.50;99.90;;;;;;5011846;28;20050;-67
2023/09/18 01:42:10;;;;;;;34.63;29.13;;;17.50;99.90;;;;;;5011107;28;20045;-67
2023/09/18 01:44:40;;;;;;;38.55;30.42;;;17.50;99.90;;;;;;5010684;28;20053;-67
2023/09/18 01:47:12;;;;;;;38.47;29.45;;;17.50;99.90;;;;;;5010822;28;20618;-67
2023/09/18 01:49:40;;;;;;;37.33;30.95;;;17.50;99.90;;;;;;5011395;28;20517;-67
2023/09/18 01:52:07;;;;;;;38.05;32.05;;;17.40;99.90;;;;;;5012269;28;20065;-68
2023/09/18 01:54:34;;;;;;;34.63;30.27;;;17.40;99.90;;;;;;5010511;28;20132;-68
2023/09/18 01:57:00;;;;;;;34.58;29.50;;;17.40;99.90;;;;;;5010901;28;20041;-67
2023/09/18 01:59:26;;;;;;;34.35;29.75;;;17.40;99.90;;;;;;5012170;28;20042;-68
2023/09/18 02:01:55;;;;;;;34.08;30.50;;;17.40;99.90;;;;;;5011732;28;20129;-67
2023/09/18 02:04:22;;;;;;;34.05;29.33;;;17.40;99.90;;;;;;5015323;28;20053;-66
2023/09/18 02:06:49;;;;;;;37.83;30.25;;;17.40;99.90;;;;;;5015198;28;20068;-67
2023/09/18 02:09:15;;;;;;;34.28;29.80;;;17.40;99.90;;;;;;5015611;28;20120;-67
2023/09/18 02:11:43;;;;;;;33.90;29.63;;;17.40;99.90;;;;;;5015192;28;20492;-66
2023/09/18 02:14:10;;;;;;;33.70;28.92;;;17.40;99.90;;;;;;5014872;28;20431;-67
2023/09/18 02:16:37;;;;;;;33.50;29.77;;;17.40;99.90;;;;;;4997944;28;20096;-70
2023/09/18 02:19:03;;;;;;;32.53;29.02;;;17.40;99.90;;;;;;5014303;28;20061;-68
2023/09/18 02:21:30;;;;;;;32.85;28.60;;;17.40;99.90;;;;;;5014179;28;20053;-66
2023/09/18 02:23:56;;;;;;;33.90;30.30;;;17.40;99.90;;;;;;4997372;28;20049;-66
2023/09/18 02:26:23;;;;;;;31.83;28.50;;;17.40;99.90;;;;;;5015633;28;20048;-66
2023/09/18 02:28:49;;;;;;;31.65;28.33;;;17.40;99.90;;;;;;5015101;28;20056;-68
2023/09/18 02:31:15;;;;;;;32.25;27.98;;;17.40;99.90;;;;;;5014312;28;20046;-67
2023/09/18 02:33:41;;;;;;;30.85;27.77;;;17.40;99.90;;;;;;4996835;28;20050;-66
2023/09/18 02:36:07;;;;;;;32.45;28.95;;;17.50;99.90;;;;;;5014882;28;20041;-66
2023/09/18 02:38:33;;;;;;;28.55;25.73;;;17.50;99.90;;;;;;4997498;28;20057;-67
2023/09/18 02:41:00;;;;;;;30.65;27.08;;;17.50;99.90;;;;;;5013353;28;20042;-67
2023/09/18 02:43:25;;;;;;;31.42;27.98;;;17.50;99.90;;;;;;5013749;28;20049;-67
2023/09/18 02:45:52;;;;;;;30.25;27.15;;;17.50;99.90;;;;;;5013416;28;20132;-67
2023/09/18 02:48:18;;;;;;;30.20;27.10;;;17.50;99.90;;;;;;5014029;28;20054;-67
2023/09/18 02:50:44;;;;;;;29.98;26.88;;;17.50;99.90;;;;;;4996785;28;20064;-66
2023/09/18 02:53:21;;;;;;;30.90;27.70;;;17.50;99.90;;;;;;5014937;28;20085;-67
2023/09/18 02:55:50;;;;;;;30.50;27.17;;;17.50;99.90;;;;;;5014328;28;20085;-67
2023/09/18 02:58:16;;;;;;;30.33;26.83;;;17.50;99.90;;;;;;5014697;28;20101;-66
2023/09/18 03:00:43;;;;;;;30.40;27.17;;;17.50;99.90;;;;;;5014387;28;20046;-69
2023/09/18 03:03:10;;;;;;;31.00;27.90;;;17.50;99.90;;;;;;5013594;28;20089;-67
2023/09/18 03:05:36;;;;;;;28.88;25.88;;;17.50;99.90;;;;;;5013560;28;20050;-67
2023/09/18 03:08:02;;;;;;;31.27;27.48;;;17.50;99.90;;;;;;5014036;28;20069;-66
2023/09/18 03:10:28;;;;;;;29.75;26.65;;;17.50;99.90;;;;;;4996962;28;20050;-66
2023/09/18 03:12:53;;;;;;;29.80;25.55;;;17.50;99.90;;;;;;5014055;28;20057;-66
2023/09/18 03:15:19;;;;;;;30.42;27.00;;;17.50;99.90;;;;;;4995932;28;20373;-68
2023/09/18 03:17:45;;;;;;;30.83;27.50;;;17.50;99.90;;;;;;5014020;28;20121;-67
2023/09/18 03:20:11;;;;;;;30.27;27.00;;;17.50;99.90;;;;;;5013561;28;20463;-67
2023/09/18 03:22:36;;;;;;;30.27;27.05;;;17.50;99.90;;;;;;4996958;28;20104;-66
2023/09/18 03:25:03;;;;;;;32.28;28.92;;;17.50;99.90;;;;;;5012697;28;20088;-67
2023/09/18 03:27:28;;;;;;;30.27;27.13;;;17.50;99.90;;;;;;4997271;28;20480;-66
2023/09/18 03:29:58;;;;;;;28.73;25.83;;;17.50;99.90;;;;;;5012726;28;20049;-67
2023/09/18 03:32:23;;;;;;;29.08;26.00;;;17.50;99.90;;;;;;5014173;28;20046;-67
2023/09/18 03:34:53;;;;;;;27.70;24.85;;;17.50;99.90;;;;;;5013651;28;20053;-67
2023/09/18 03:37:19;;;;;;;26.48;23.75;;;17.50;99.90;;;;;;4997000;28;20184;-66
2023/09/18 03:39:45;;;;;;;28.70;25.67;;;17.50;99.90;;;;;;5012790;28;20506;-70
2023/09/18 03:42:10;;;;;;;27.42;23.52;;;17.50;99.90;;;;;;5013545;28;20045;-67
2023/09/18 03:44:37;;;;;;;25.95;23.23;;;17.50;99.90;;;;;;5013794;28;20049;-66
2023/09/18 03:47:03;;;;;;;25.83;23.02;;;17.50;99.90;;;;;;5045400;28;20054;-68
2023/09/18 03:49:29;;;;;;;26.80;23.95;;;17.50;99.90;;;;;;5013774;28;20403;-67
2023/09/18 03:51:55;;;;;;;27.15;24.05;;;17.50;99.90;;;;;;5013439;28;20056;-68
2023/09/18 03:54:21;;;;;;;25.35;22.02;;;17.50;99.90;;;;;;5013744;28;20495;-66
2023/09/18 03:56:46;;;;;;;25.77;23.13;;;17.50;99.90;;;;;;5013341;28;20060;-69
2023/09/18 03:59:13;;;;;;;25.95;23.20;;;17.50;99.90;;;;;;5013270;28;20100;-67
2023/09/18 04:01:39;;;;;;;24.55;21.92;;;17.50;99.90;;;;;;4996209;28;20484;-67
2023/09/18 04:04:06;;;;;;;25.58;22.83;;;17.50;99.90;;;;;;5012226;28;20054;-67
2023/09/18 04:06:43;;;;;;;25.35;22.65;;;17.50;99.90;;;;;;5012154;28;20129;-67
2023/09/18 04:09:09;;;;;;;24.88;21.17;;;17.50;99.90;;;;;;5011770;28;20042;-67
2023/09/18 04:11:35;;;;;;;24.33;21.52;;;17.50;99.90;;;;;;5012377;28;20046;-67
2023/09/18 04:14:03;;;;;;;24.30;21.90;;;17.50;99.90;;;;;;5013032;28;20056;-67
2023/09/18 04:16:30;;;;;;;24.00;20.75;;;17.50;99.90;;;;;;5013430;28;20087;-67
2023/09/18 04:18:56;;;;;;;24.17;21.75;;;17.50;99.90;;;;;;5011760;28;20148;-67
2023/09/18 04:21:23;;;;;;;24.83;21.08;;;17.50;99.90;;;;;;5013022;28;20657;-66
2023/09/18 04:23:55;;;;;;;23.88;21.38;;;17.50;99.90;;;;;;5013189;28;20046;-67
2023/09/18 04:26:21;;;;;;;21.85;19.70;;;17.50;99.90;;;;;;5011959;28;20057;-67
2023/09/18 04:28:47;;;;;;;23.38;19.77;;;17.50;99.90;;;;;;5012151;28;20502;-67
2023/09/18 04:31:13;;;;;;;22.45;20.10;;;17.50;99.90;;;;;;5011143;28;20375;-66
2023/09/18 04:33:38;;;;;;;23.48;18.58;;;17.50;99.90;;;;;;4995986;28;20045;-66
2023/09/18 04:36:04;;;;;;;23.65;18.75;;;17.50;99.90;;;;;;5012602;28;20052;-66
2023/09/18 04:38:30;;;;;;;21.60;18.23;;;17.50;99.90;;;;;;5011606;28;20042;-67
2023/09/18 04:41:00;;;;;;;22.35;18.80;;;17.50;99.90;;;;;;5011345;28;20046;-67
2023/09/18 04:43:26;;;;;;;23.55;19.27;;;17.50;99.90;;;;;;5011790;28;20129;-68
2023/09/18 04:45:51;;;;;;;21.90;19.00;;;17.50;99.90;;;;;;5012374;28;20459;-67
2023/09/18 04:48:17;;;;;;;20.23;17.58;;;17.60;99.90;;;;;;5012276;28;20129;-66
2023/09/18 04:50:46;;;;;;;22.63;17.83;;;17.50;99.90;;;;;;5011193;28;20150;-66
2023/09/18 04:53:12;;;;;;;19.73;17.20;;;17.50;99.90;;;;;;5010888;28;20373;-66
2023/09/18 04:55:38;;;;;;;22.65;17.52;;;17.50;99.90;;;;;;5012612;28;20046;-67
2023/09/18 04:58:05;;;;;;;20.90;17.25;;;17.60;99.90;;;;;;5010834;28;20061;-67
2023/09/18 05:00:31;;;;;;;22.95;17.92;;;17.60;99.90;;;;;;5011379;28;20058;-69
2023/09/18 05:03:01;;;;;;;19.45;17.35;;;17.60;99.90;;;;;;5012223;28;20464;-71
2023/09/18 05:05:27;;;;;;;20.55;18.38;;;17.60;99.90;;;;;;5011206;28;20061;-67
2023/09/18 05:07:53;;;;;;;20.63;16.38;;;17.60;99.90;;;;;;5010778;28;20403;-67
2023/09/18 05:10:19;;;;;;;22.75;16.73;;;17.60;99.90;;;;;;5011776;28;20038;-68
2023/09/18 05:12:45;;;;;;;19.90;17.30;;;17.70;99.90;;;;;;5012264;28;20061;-67
2023/09/18 05:15:12;;;;;;;19.63;16.48;;;17.60;99.90;;;;;;5010586;28;20053;-67
2023/09/18 05:17:46;;;;;;;19.77;15.60;;;17.60;99.90;;;;;;5012432;28;20050;-66
2023/09/18 05:20:13;;;;;;;21.42;16.58;;;17.70;99.90;;;;;;5010858;28;20062;-66
2023/09/18 05:22:40;;;;;;;19.08;15.45;;;17.70;99.90;;;;;;5010976;28;20484;-67
2023/09/18 05:25:06;;;;;;;20.02;16.42;;;17.70;99.90;;;;;;5011719;28;20049;-67
2023/09/18 05:27:32;;;;;;;20.60;16.10;;;17.80;99.90;;;;;;5010329;28;20510;-67
2023/09/18 05:29:58;;;;;;;21.55;16.48;;;17.70;99.90;;;;;;5010917;28;20042;-66
2023/09/18 05:32:24;;;;;;;22.17;15.60;;;17.80;99.90;;;;;;5011254;28;20045;-66
2023/09/18 05:34:49;;;;;;;18.27;14.85;;;17.80;99.90;;;;;;5011775;28;20096;-67
2023/09/18 05:37:15;;;;;;;17.90;15.90;;;17.80;99.90;;;;;;5010062;28;20088;-67
2023/09/18 05:39:41;;;;;;;20.30;14.85;;;17.80;99.90;;;;;;5014851;28;20050;-67
2023/09/18 05:42:07;;;;;;;26.23;15.60;;;17.90;99.90;;;;;;5014263;28;20068;-68
2023/09/18 05:44:33;;;;;;;24.40;15.73;;;17.90;99.90;;;;;;5014723;28;20050;-67
2023/09/18 05:46:59;;;;;;;20.80;15.07;;;17.90;99.90;;;;;;4998303;28;20050;-67
2023/09/18 05:49:24;;;;;;;22.58;14.15;;;17.90;99.90;;;;;;5014091;28;20041;-67
2023/09/18 05:51:50;;;;;;;19.60;14.70;;;18.00;99.90;;;;;;5015982;28;20046;-67
2023/09/18 05:54:16;;;;;;;20.48;14.15;;;18.00;99.90;;;;;;4998046;28;20080;-66
2023/09/18 05:56:41;;;;;;;21.00;14.02;;;18.00;99.90;;;;;;5014306;28;20503;-66
2023/09/18 05:59:07;;;;;;;17.83;13.38;;;18.00;99.90;;;;;;5013962;28;20067;-67
2023/09/18 06:01:33;;;;;;;18.80;13.27;;;18.10;99.90;;;;;;4998503;28;20056;-68
2023/09/18 06:03:58;;;;;;;19.13;13.70;;;18.10;99.90;;;;;;5014459;28;20046;-67
2023/09/18 06:06:25;;;;;;;18.15;13.30;;;18.20;99.90;;;;;;5015340;28;20058;-68
2023/09/18 06:08:53;;;;;;;17.60;12.93;;;18.20;99.90;;;;;;5014399;28;20050;-67
2023/09/18 06:11:19;;;;;;;19.02;13.13;;;18.20;99.90;;;;;;5015087;28;20045;-67
2023/09/18 06:13:45;;;;;;;15.82;12.43;;;18.20;99.90;;;;;;5015410;28;20048;-67
2023/09/18 06:16:11;;;;;;;17.38;13.10;;;18.20;99.90;;;;;;5013775;28;20081;-68
2023/09/18 06:18:38;;;;;;;16.30;13.27;;;18.30;99.90;;;;;;5015680;28;20053;-68
2023/09/18 06:21:05;;;;;;;19.33;13.15;;;18.30;99.90;;;;;;5014161;28;20085;-68
2023/09/18 06:23:31;;;;;;;19.92;13.52;;;18.30;99.90;;;;;;5013824;28;20054;-67
2023/09/18 06:25:59;;;;;;;16.13;11.82;;;18.30;99.90;;;;;;5014179;28;20064;-68
2023/09/18 06:28:24;;;;;;;15.65;11.73;;;18.30;99.90;;;;;;5014859;28;20404;-67
2023/09/18 06:30:50;;;;;;;15.07;12.10;;;18.30;99.90;;;;;;5013529;28;20053;-67
2023/09/18 06:33:16;;;;;;;13.88;10.43;;;18.30;99.90;;;;;;5013557;28;20057;-67
2023/09/18 06:35:42;;;;;;;18.00;10.88;;;18.40;99.90;;;;;;5013497;28;20050;-69
2023/09/18 06:38:10;;;;;;;16.80;10.30;;;18.40;99.90;;;;;;5014981;28;20191;-67
2023/09/18 06:40:35;;;;;;;16.50;9.85;;;18.40;99.90;;;;;;4997772;28;20054;-69
2023/09/18 06:43:01;;;;;;;12.63;10.10;;;18.50;99.90;;;;;;5014453;28;20046;-69
2023/09/18 06:45:30;;;;;;;14.60;10.18;;;18.50;99.90;;;;;;5013135;28;20050;-69
2023/09/18 06:47:55;;;;;;;17.05;10.00;;;18.50;99.90;;;;;;5013871;28;20049;-69
2023/09/18 06:50:21;;;;;;;13.60;9.18;;;18.50;99.90;;;;;;5013083;28;20494;-69
2023/09/18 06:52:47;;;;;;;10.30;9.13;;;18.60;99.90;;;;;;4996801;28;20050;-69
2023/09/18 06:55:13;;;;;;;11.27;8.70;;;18.60;99.90;;;;;;4997246;28;20045;-75
2023/09/18 06:57:40;;;;;;;11.10;8.43;;;18.70;99.90;;;;;;4997147;28;20081;-68
2023/09/18 07:00:07;;;;;;;13.88;8.23;;;18.70;99.90;;;;;;4997074;28;20048;-68
2023/09/18 07:02:33;;;;;;;13.20;8.70;;;18.70;99.90;;;;;;5012823;28;20071;-69
2023/09/18 07:04:58;;;;;;;17.08;9.32;;;18.70;99.90;;;;;;5013410;28;20046;-68
2023/09/18 07:07:25;;;;;;;18.60;9.98;;;18.70;99.90;;;;;;5012673;28;20061;-71
2023/09/18 07:09:54;;;;;;;14.63;10.10;;;18.70;99.90;;;;;;5014133;28;20129;-70
2023/09/18 07:12:19;;;;;;;15.27;10.32;;;18.70;99.90;;;;;;4996602;28;20137;-69
2023/09/18 07:14:46;;;;;;;17.73;10.77;;;18.70;99.90;;;;;;5013135;28;20077;-70
2023/09/18 07:17:12;;;;;;;18.13;11.57;;;18.60;99.90;;;;;;5013423;28;20054;-72
2023/09/18 07:19:39;;;;;;;17.40;11.00;;;18.60;99.90;;;;;;5013769;28;20064;-74
2023/09/18 07:22:04;;;;;;;18.40;11.68;;;18.60;99.90;;;;;;5012913;28;20100;-70
2023/09/18 07:24:30;;;;;;;22.27;12.57;;;18.50;99.90;;;;;;5012684;28;20081;-71
2023/09/18 07:26:57;;;;;;;18.58;12.57;;;18.60;99.90;;;;;;4996537;28;20046;-70
2023/09/18 07:29:25;;;;;;;16.45;12.02;;;18.50;99.90;;;;;;5012481;28;20046;-70
2023/09/18 07:31:51;;;;;;;20.38;12.52;;;18.60;99.90;;;;;;5013922;28;20054;-71
2023/09/18 07:34:17;;;;;;;16.05;12.88;;;18.50;99.90;;;;;;5013930;28;20046;-70
2023/09/18 07:36:44;;;;;;;18.92;12.63;;;18.60;99.90;;;;;;5012453;28;20107;-71
2023/09/18 07:39:11;;;;;;;34.60;14.45;;;18.50;99.90;;;;;;5013588;28;20531;-77
2023/09/18 07:41:37;;;;;;;22.70;14.30;;;18.50;99.90;;;;;;5012171;28;20088;-71
2023/09/18 07:44:03;;;;;;;22.33;14.73;;;18.50;99.90;;;;;;5013866;28;20050;-72
2023/09/18 07:46:29;;;;;;;20.05;14.30;;;18.40;99.90;;;;;;5012487;28;20057;-70
2023/09/18 07:48:55;;;;;;;24.10;14.38;;;18.30;99.90;;;;;;4980043;28;20488;-72
2023/09/18 07:51:21;;;;;;;30.40;15.02;;;18.30;99.90;;;;;;5013477;28;20107;-72
2023/09/18 07:53:47;;;;;;;22.67;15.23;;;18.30;99.90;;;;;;4995960;28;20046;-72
2023/09/18 07:56:13;;;;;;;25.60;15.65;;;18.20;99.90;;;;;;5012089;28;20050;-72
2023/09/18 07:58:38;;;;;;;20.95;15.55;;;18.20;99.90;;;;;;5013337;28;20046;-73
2023/09/18 08:01:05;;;;;;;23.83;15.02;;;18.20;99.90;;;;;;5008975;28;20046;-73
2023/09/18 08:03:34;;;;;;;22.42;15.18;;;18.20;99.90;;;;;;5011716;28;20056;-72
2023/09/18 08:06:00;;;;;;;25.00;14.43;;;18.20;99.90;;;;;;5013067;28;20154;-70
2023/09/18 08:08:26;;;;;;;19.20;14.43;;;18.20;99.90;;;;;;5011520;28;20057;-78
2023/09/18 08:10:53;;;;;;;22.65;14.68;;;18.20;99.90;;;;;;5012651;28;20499;-73
2023/09/18 08:13:23;;;;;;;23.05;16.10;;;18.30;99.90;;;;;;5012381;28;20053;-73
2023/09/18 08:15:48;;;;;;;24.65;16.30;;;18.30;99.90;;;;;;5011807;28;20046;-72
2023/09/18 08:18:14;;;;;;;28.92;17.35;;;18.30;99.90;;;;;;4996049;28;20049;-72
2023/09/18 08:20:43;;;;;;;25.00;16.67;;;18.30;99.90;;;;;;5012165;28;20472;-72
2023/09/18 08:23:10;;;;;;;24.60;16.48;;;18.30;99.90;;;;;;5011259;28;20124;-71
2023/09/18 08:25:36;;;;;;;23.00;16.55;;;18.40;99.90;;;;;;5011766;28;20142;-74
2023/09/18 08:28:03;;;;;;;23.75;15.95;;;18.30;99.90;;;;;;5012197;28;20056;-74
2023/09/18 08:30:29;;;;;;;23.65;15.95;;;18.30;99.90;;;;;;5010946;28;20121;-79
2023/09/18 08:32:54;;;;;;;22.05;14.32;;;18.30;99.90;;;;;;5011943;28;20133;-74
2023/09/18 08:35:21;;;;;;;22.17;16.38;;;18.30;99.90;;;;;;5010777;28;20057;-73
2023/09/18 08:37:47;;;;;;;21.60;14.57;;;18.30;99.90;;;;;;4992418;28;20090;-74
2023/09/18 08:40:14;;;;;;;23.02;14.82;;;18.30;99.90;;;;;;5010868;28;20095;-74
2023/09/18 08:42:45;;;;;;;23.25;14.40;;;18.40;99.90;;;;;;4979111;28;20456;-73
2023/09/18 08:45:22;;;;;;;19.05;14.10;;;18.40;99.90;;;;;;5011487;28;20111;-76
2023/09/18 08:47:49;;;;;;;22.67;13.77;;;18.40;99.90;;;;;;5011700;28;20049;-73
2023/09/18 08:50:15;;;;;;;19.90;13.20;;;18.40;99.90;;;;;;5012560;28;20088;-73
2023/09/18 08:52:42;;;;;;;16.98;12.57;;;18.40;99.90;;;;;;5011363;28;20491;-73
2023/09/18 08:55:09;;;;;;;20.30;12.82;;;18.40;99.90;;;;;;5012594;28;20549;-72
2023/09/18 08:57:36;;;;;;;20.60;14.32;;;18.50;99.90;;;;;;5010566;28;20052;-73
2023/09/18 09:00:06;;;;;;;19.90;14.10;;;18.50;99.90;;;;;;5011135;28;20071;-72
2023/09/18 09:02:36;;;;;;;18.50;13.20;;;18.50;99.90;;;;;;5012623;28;20056;-77
2023/09/18 09:05:02;;;;;;;20.45;13.77;;;18.50;99.90;;;;;;4995075;28;20049;-72
2023/09/18 09:07:31;;;;;;;17.17;12.88;;;18.60;99.90;;;;;;5011852;28;20476;-72
2023/09/18 09:09:57;;;;;;;20.73;13.68;;;18.60;99.90;;;;;;5010551;28;20387;-71
2023/09/18 09:12:58;;;;;;;19.25;13.07;;;18.70;99.90;;;;;;4994980;28;20137;-72
2023/09/18 09:15:26;;;;;;;17.40;14.00;;;18.70;99.90;;;;;;5011363;28;20483;-73
2023/09/18 09:18:05;;;;;;;19.73;13.35;;;18.70;99.90;;;;;;5010530;28;20096;-73
2023/09/18 09:20:32;;;;;;;22.58;13.70;;;18.70;99.90;;;;;;5011663;28;20077;-72
2023/09/18 09:23:08;;;;;;;17.92;13.02;;;18.70;99.90;;;;;;5010395;28;20053;-73
2023/09/18 09:25:35;;;;;;;14.55;11.55;;;18.70;99.90;;;;;;5012325;28;20092;-72
2023/09/18 09:28:05;;;;;;;20.75;12.40;;;18.70;99.90;;;;;;4993691;28;20056;-71
2023/09/18 09:30:33;;;;;;;17.60;11.95;;;18.80;99.90;;;;;;5010931;28;20373;-72
2023/09/18 09:33:02;;;;;;;18.10;13.35;;;18.80;99.90;;;;;;5011216;28;20120;-76
2023/09/18 09:35:35;;;;;;;17.00;12.57;;;18.90;99.90;;;;;;5010953;28;20133;-71
2023/09/18 09:38:08;;;;;;;15.68;13.05;;;19.00;99.90;;;;;;4994607;28;20089;-71
2023/09/18 09:40:35;;;;;;;17.63;12.15;;;19.00;99.90;;;;;;4994670;28;20061;-70
2023/09/18 09:43:02;;;;;;;17.13;12.80;;;19.00;99.90;;;;;;5011527;28;20046;-70
2023/09/18 09:45:29;;;;;;;18.75;13.15;;;19.00;99.90;;;;;;5010956;28;20076;-71
2023/09/18 09:47:56;;;;;;;14.75;12.77;;;19.10;99.90;;;;;;5010540;28;20046;-72
2023/09/18 09:50:25;;;;;;;16.60;13.60;;;19.20;99.90;;;;;;5012046;28;20377;-70
2023/09/18 09:52:53;;;;;;;16.25;13.45;;;19.20;99.90;;;;;;5010242;28;20050;-71
2023/09/18 09:55:28;;;;;;;15.00;12.90;;;19.30;99.90;;;;;;5011054;28;20057;-74
2023/09/18 09:57:59;;;;;;;15.20;12.52;;;19.30;99.90;;;;;;5010429;28;20057;-74
2023/09/18 10:00:59;;;;;;;15.02;13.07;;;19.30;99.90;;;;;;5011830;28;20077;-74
2023/09/18 10:03:25;;;;;;;15.23;13.07;;;19.40;99.90;;;;;;4992632;28;20050;-72
2023/09/18 10:05:55;;;;;;;17.05;12.68;;;19.40;99.90;;;;;;5010570;28;20049;-73
2023/09/18 10:08:26;;;;;;;17.42;13.48;;;19.40;99.90;;;;;;5010037;28;20092;-73
2023/09/18 10:10:54;;;;;;;18.17;13.82;;;19.40;99.90;;;;;;5010201;28;20081;-76
2023/09/18 10:13:27;;;;;;;18.08;14.02;;;19.50;99.90;;;;;;5010339;28;20096;-73
2023/09/18 10:15:54;;;;;;;18.25;13.23;;;19.60;99.90;;;;;;5010661;28;20053;-75
2023/09/18 10:18:36;;;;;;;18.02;13.65;;;19.60;99.90;;;;;;5012111;28;20056;-74
2023/09/18 10:21:24;;;;;;;22.67;14.30;;;19.70;99.90;;;;;;5011635;28;20116;-74
2023/09/18 10:24:03;;;;;;;20.77;14.98;;;19.80;99.90;;;;;;5010939;28;20046;-74
2023/09/18 10:26:33;;;;;;;18.98;14.68;;;19.90;99.90;;;;;;4997699;28;20058;-74
2023/09/18 10:29:03;;;;;;;20.27;16.15;;;19.90;99.90;;;;;;4996808;28;20041;-74
2023/09/18 10:31:29;;;;;;;17.33;14.65;;;20.00;99.90;;;;;;5015048;28;20041;-74
2023/09/18 10:33:59;;;;;;;17.70;14.25;;;20.10;99.90;;;;;;4997233;28;20054;-74
2023/09/18 10:36:26;;;;;;;15.00;13.35;;;20.20;99.90;;;;;;5014036;28;20107;-74
2023/09/18 10:38:54;;;;;;;17.88;15.57;;;20.30;99.90;;;;;;5013250;28;20511;-74
2023/09/18 10:41:21;;;;;;;16.15;14.55;;;20.40;99.90;;;;;;5013771;28;20042;-73
2023/09/18 10:43:47;;;;;;;18.25;14.10;;;20.50;99.90;;;;;;5013323;28;20061;-80
2023/09/18 10:46:14;;;;;;;14.98;13.35;;;20.50;99.90;;;;;;4997660;28;20446;-74
2023/09/18 10:48:44;;;;;;;15.43;13.80;;;20.60;99.90;;;;;;5013742;28;20073;-71
2023/09/18 10:51:11;;;;;;;17.20;13.60;;;20.60;99.90;;;;;;5013516;28;20042;-73
2023/09/18 10:53:37;;;;;;;14.50;11.43;;;20.70;99.90;;;;;;5015123;28;20046;-75
2023/09/18 10:56:04;;;;;;;13.25;11.63;;;20.80;99.90;;;;;;5046836;28;20046;-75
2023/09/18 10:58:30;;;;;;;11.40;10.20;;;21.00;99.90;;;;;;5014953;28;20054;-73
2023/09/18 11:00:59;;;;;;;11.73;9.32;;;21.00;99.90;;;;;;5013496;28;20112;-73
2023/09/18 11:03:25;;;;;;;12.05;9.15;;;21.10;99.90;;;;;;5013664;28;20061;-73
2023/09/18 11:06:04;;;;;;;12.15;9.60;;;21.20;99.90;;;;;;5013038;28;20050;-79
2023/09/18 11:08:51;;;;;;;12.25;8.00;;;21.20;99.90;;;;;;5044361;28;20057;-72
2023/09/18 11:11:25;;;;;;;11.65;8.60;;;21.30;99.90;;;;;;5013410;28;20065;-72
2023/09/18 11:13:55;;;;;;;8.65;7.72;;;21.30;99.90;;;;;;5013398;28;20061;-80
2023/09/18 11:16:27;;;;;;;10.35;7.55;;;21.30;99.90;;;;;;5030564;28;20056;-73
2023/09/18 11:19:05;;;;;;;8.20;6.30;;;21.50;99.90;;;;;;5013323;28;20049;-74
2023/09/18 11:21:32;;;;;;;8.27;6.57;;;21.60;99.90;;;;;;5015236;28;20042;-72
2023/09/18 11:24:06;;;;;;;10.55;6.65;;;21.70;99.90;;;;;;5012743;28;20085;-72
2023/09/18 11:26:36;;;;;;;8.35;5.43;;;21.70;99.90;;;;;;4996823;28;20484;-72
2023/09/18 11:29:07;;;;;;;8.40;5.90;;;21.70;99.90;;;;;;5013030;28;20395;-73
2023/09/18 11:31:43;;;;;;;8.30;5.68;;;21.70;99.90;;;;;;5013978;28;20115;-73
2023/09/18 11:34:23;;;;;;;9.15;5.78;;;21.80;99.90;;;;;;5014123;28;20399;-73
2023/09/18 11:36:50;;;;;;;7.80;5.38;;;21.80;99.90;;;;;;5011953;28;20127;-72
2023/09/18 11:39:44;;;;;;;9.77;5.25;;;21.80;99.90;;;;;;5013807;28;20130;-74
2023/09/18 11:42:19;;;;;;;6.30;5.07;;;21.80;99.90;;;;;;5044983;28;20068;-75
2023/09/18 11:44:48;;;;;;;6.07;4.70;;;21.90;99.90;;;;;;5014607;28;20050;-78
2023/09/18 11:47:27;;;;;;;7.03;4.57;;;21.90;99.90;;;;;;5012950;28;20046;-75
2023/09/18 11:49:59;;;;;;;10.38;4.47;;;22.00;99.90;;;;;;4996699;28;20133;-75
2023/09/18 11:52:27;;;;;;;7.45;4.63;;;22.10;99.90;;;;;;4996382;28;20460;-74
2023/09/18 11:54:56;;;;;;;6.50;4.97;;;22.00;99.90;;;;;;5012847;28;20042;-74
2023/09/18 11:57:22;;;;;;;6.68;4.70;;;22.00;99.90;;;;;;5012132;28;20092;-74
2023/09/18 11:59:50;;;;;;;6.22;4.50;;;21.90;99.90;;;;;;5012945;28;20085;-73
2023/09/18 12:02:36;;;;;;;6.93;4.45;;;21.90;99.90;;;;;;5012188;28;20056;-73
2023/09/18 12:05:15;;;;;;;8.68;4.82;;;21.80;99.90;;;;;;5012468;28;20053;-74
2023/09/18 12:07:44;;;;;;;8.82;4.43;;;21.80;99.90;;;;;;5013512;28;20057;-72
2023/09/18 12:10:11;;;;;;;6.85;4.47;;;21.80;99.90;;;;;;5012953;28;20484;-72
2023/09/18 12:12:38;;;;;;;8.05;4.40;;;21.80;99.90;;;;;;5012482;28;20053;-73
2023/09/18 12:15:04;;;;;;;7.85;4.70;;;21.90;99.90;;;;;;5013212;28;20104;-74
2023/09/18 12:17:30;;;;;;;9.38;4.50;;;21.90;99.90;;;;;;5012804;28;20508;-75
2023/09/18 12:19:55;;;;;;;11.55;4.82;;;22.00;99.90;;;;;;5013242;28;20080;-76
2023/09/18 12:22:29;;;;;;;6.55;4.20;;;22.20;99.90;;;;;;5011363;28;20046;-73
2023/09/18 12:25:15;;;;;;;8.80;3.83;;;22.30;99.90;;;;;;4995915;28;20050;-73
2023/09/18 12:27:44;;;;;;;7.35;4.18;;;22.30;99.90;;;;;;4995353;28;20061;-72
2023/09/18 12:30:11;;;;;;;5.28;3.55;;;22.40;99.90;;;;;;5012617;28;20045;-73
2023/09/18 12:32:40;;;;;;;6.80;3.88;;;22.40;99.90;;;;;;5011492;28;20053;-72